Atka Airport


Codes: PAAK/AKB
Name: Atka Airport
City: Atka
Country: United States
Elevation: 57 ft.
Wikipedia:

Photos at Atka Airport


   Photos courtesy of SpottingLog. You can add your own sightings and photos by signing up for a free trial today.



No photos found.

Weather at Atka Airport


Time (UTC)DescriptionTempratureWindCloud coverageVisibilityPressureHumidity
15-Apr-2024 18:00Light Snow2°C18 mph, NW100%10000m1007hPa89%
15-Apr-2024 21:00Overcast Clouds2°C13 mph, NW98%10000m1009hPa85%
16-Apr-2024 00:00Overcast Clouds3°C13 mph, NW95%10000m1012hPa80%
16-Apr-2024 03:00Overcast Clouds3°C11 mph, NW99%10000m1012hPa79%
16-Apr-2024 06:00Overcast Clouds2°C7 mph, NW99%10000m1014hPa82%
16-Apr-2024 09:00Overcast Clouds2°C4 mph, W100%10000m1014hPa83%
16-Apr-2024 12:00Light Snow1°C7 mph, SW100%2466m1014hPa96%
16-Apr-2024 15:00Light Snow2°C11 mph, W100%42m1012hPa99%
16-Apr-2024 18:00Light Snow2°C11 mph, NW100%44m1013hPa99%
16-Apr-2024 21:00Light Snow2°C18 mph, NW100%4429m1014hPa90%
17-Apr-2024 00:00Light Snow1°C22 mph, NW97%6923m1016hPa77%
17-Apr-2024 03:00Light Snow1°C25 mph, NW99%9151m1018hPa66%
17-Apr-2024 06:00Light Snow0°C27 mph, NW98%10000m1020hPa63%
17-Apr-2024 09:00Light Snow0°C25 mph, NW96%10000m1022hPa62%
17-Apr-2024 12:00Light Snow0°C27 mph, NW96%10000m1023hPa63%
17-Apr-2024 15:00Light Snow0°C27 mph, NW99%10000m1023hPa64%
17-Apr-2024 18:00Light Snow0°C25 mph, NW99%10000m1023hPa68%
17-Apr-2024 21:00Light Snow1°C27 mph, NW96%10000m1024hPa61%
18-Apr-2024 00:00Light Snow1°C27 mph, NW96%10000m1024hPa59%
18-Apr-2024 03:00Light Rain1°C27 mph, NW96%10000m1023hPa59%
18-Apr-2024 06:00Overcast Clouds1°C27 mph, NW94%10000m1023hPa63%
18-Apr-2024 09:00Overcast Clouds1°C27 mph, NW91%10000m1024hPa64%
18-Apr-2024 12:00Overcast Clouds1°C25 mph, NW91%10000m1024hPa65%
18-Apr-2024 15:00Overcast Clouds1°C22 mph, NW88%10000m1023hPa66%
18-Apr-2024 18:00Overcast Clouds1°C20 mph, NW86%10000m1023hPa66%
18-Apr-2024 21:00Broken Clouds1°C18 mph, NW74%10000m1023hPa62%
19-Apr-2024 00:00Broken Clouds2°C20 mph, NW66%10000m1023hPa64%
19-Apr-2024 03:00Scattered Clouds2°C20 mph, NW45%10000m1021hPa64%
19-Apr-2024 06:00Scattered Clouds1°C13 mph, NW41%10000m1021hPa65%
19-Apr-2024 09:00Few Clouds0°C11 mph, NW23%10000m1020hPa66%
19-Apr-2024 12:00Few Clouds0°C9 mph, NW17%10000m1019hPa66%
19-Apr-2024 15:00Broken Clouds0°C9 mph, NW58%10000m1017hPa70%
19-Apr-2024 18:00Light Snow-1°C7 mph, NW78%2513m1015hPa91%
19-Apr-2024 21:00Snow-0°C16 mph, NW100%363m1013hPa92%
20-Apr-2024 00:00Light Snow1°C20 mph, NW98%10000m1012hPa56%
20-Apr-2024 03:00Overcast Clouds1°C18 mph, NW96%10000m1011hPa59%
20-Apr-2024 06:00Overcast Clouds1°C18 mph, NW95%6559m1009hPa81%
20-Apr-2024 09:00Light Snow1°C18 mph, NW98%3091m1008hPa93%
20-Apr-2024 12:00Snow2°C25 mph, NW98%39m1005hPa98%
20-Apr-2024 15:00Snow2°C18 mph, NW100%45m1004hPa98%